createdAt,value
2022-08-26T00:01:57.051Z,13.02
2022-08-26T00:04:25.606Z,18.13
2022-08-26T00:06:53.610Z,11.88
2022-08-26T00:09:21.579Z,11.70
2022-08-26T00:11:48.895Z,11.85
2022-08-26T00:14:16.859Z,18.25
2022-08-26T00:16:47.606Z,12.63
2022-08-26T00:19:16.642Z,12.93
2022-08-26T00:21:44.119Z,14.55
2022-08-26T00:24:11.996Z,13.90
2022-08-26T00:26:41.479Z,14.45
2022-08-26T00:29:09.457Z,13.15
2022-08-26T00:31:37.141Z,10.48
2022-08-26T00:34:04.855Z,19.90
2022-08-26T00:36:32.580Z,16.75
2022-08-26T00:39:00.074Z,13.73
2022-08-26T00:41:29.348Z,10.68
2022-08-26T00:43:57.408Z,15.35
2022-08-26T00:46:28.830Z,12.85
2022-08-26T00:49:00.559Z,14.70
2022-08-26T00:51:29.644Z,16.50
2022-08-26T00:54:06.366Z,17.83
2022-08-26T00:56:33.860Z,16.92
2022-08-26T00:59:02.640Z,13.57
2022-08-26T01:01:32.266Z,16.95
2022-08-26T01:04:00.912Z,17.98
2022-08-26T01:06:28.670Z,13.90
2022-08-26T01:08:56.124Z,14.93
2022-08-26T01:11:24.491Z,15.93
2022-08-26T01:13:54.699Z,12.27
2022-08-26T01:16:24.869Z,15.90
2022-08-26T01:18:54.699Z,15.07
2022-08-26T01:21:31.231Z,11.65
2022-08-26T01:23:58.897Z,13.27
2022-08-26T01:26:38.663Z,15.32
2022-08-26T01:29:06.649Z,15.38
2022-08-26T01:31:37.775Z,15.45
2022-08-26T01:34:06.412Z,17.67
2022-08-26T01:36:37.398Z,15.63
2022-08-26T01:39:05.940Z,15.40
2022-08-26T01:41:35.101Z,11.65
2022-08-26T01:44:03.652Z,15.68
2022-08-26T01:46:31.344Z,13.30
2022-08-26T01:49:00.592Z,14.40
2022-08-26T01:51:28.539Z,20.23
2022-08-26T01:53:55.924Z,17.90
2022-08-26T01:56:23.996Z,17.98
2022-08-26T01:58:59.054Z,17.63
2022-08-26T02:01:28.934Z,18.10
2022-08-26T02:04:02.020Z,12.77
2022-08-26T02:06:29.498Z,15.27
2022-08-26T02:08:58.647Z,19.60
2022-08-26T02:11:26.213Z,13.38
2022-08-26T02:13:56.295Z,17.20
2022-08-26T02:16:25.446Z,16.92
2022-08-26T02:18:53.482Z,17.38
2022-08-26T02:21:20.931Z,14.85
2022-08-26T02:23:48.268Z,20.23
2022-08-26T02:26:20.402Z,19.42
2022-08-26T02:28:51.939Z,16.63
2022-08-26T02:33:47.291Z,17.05
2022-08-26T02:36:19.705Z,18.95
2022-08-26T02:38:46.993Z,22.65
2022-08-26T02:41:15.220Z,22.08
2022-08-26T02:43:45.496Z,20.52
2022-08-26T02:46:12.977Z,22.10
2022-08-26T02:48:48.847Z,22.35
2022-08-26T02:51:16.135Z,16.70
2022-08-26T02:53:43.499Z,21.02
2022-08-26T02:56:11.486Z,31.60
2022-08-26T02:58:38.779Z,19.75
2022-08-26T03:01:06.283Z,20.83
2022-08-26T03:03:34.183Z,19.85
2022-08-26T03:06:01.469Z,24.17
2022-08-26T03:08:28.785Z,21.75
2022-08-26T03:10:56.074Z,20.85
2022-08-26T03:13:23.387Z,22.10
2022-08-26T03:15:50.688Z,23.75
2022-08-26T03:18:18.121Z,22.55
2022-08-26T03:20:47.836Z,17.13
2022-08-26T03:23:16.081Z,24.73
2022-08-26T03:25:43.372Z,24.08
2022-08-26T03:28:10.674Z,23.30
2022-08-26T03:30:44.897Z,23.15
2022-08-26T03:33:14.002Z,23.70
2022-08-26T03:35:42.844Z,26.95
2022-08-26T03:38:10.869Z,33.25
2022-08-26T03:40:39.076Z,29.17
2022-08-26T03:43:09.804Z,33.50
2022-08-26T03:45:37.778Z,32.05
2022-08-26T03:48:05.808Z,34.28
2022-08-26T03:50:34.378Z,37.40
2022-08-26T03:53:03.541Z,36.63
2022-08-26T03:55:32.125Z,35.83
2022-08-26T03:57:59.815Z,37.88
2022-08-26T04:00:27.267Z,34.92
2022-08-26T04:02:54.704Z,40.90
2022-08-26T04:05:23.315Z,37.72
2022-08-26T04:07:50.960Z,34.72
2022-08-26T04:10:20.043Z,39.95
2022-08-26T04:12:48.332Z,34.65
2022-08-26T04:15:16.308Z,46.85
2022-08-26T04:17:45.272Z,40.05
2022-08-26T04:20:14.036Z,45.05
2022-08-26T04:22:43.569Z,48.00
2022-08-26T04:25:11.337Z,49.85
2022-08-26T04:27:38.859Z,45.95
2022-08-26T04:30:08.962Z,48.42
2022-08-26T04:32:37.348Z,49.83
2022-08-26T04:35:05.452Z,47.90
2022-08-26T04:37:33.595Z,49.75
2022-08-26T04:40:00.943Z,47.20
2022-08-26T04:42:29.932Z,50.83
2022-08-26T04:44:57.217Z,55.53
2022-08-26T04:47:27.157Z,52.45
2022-08-26T04:49:57.799Z,56.58
2022-08-26T04:52:25.269Z,63.28
2022-08-26T04:54:52.796Z,50.35
2022-08-26T04:57:20.102Z,62.00
2022-08-26T04:59:47.963Z,59.60
2022-08-26T05:02:16.857Z,68.80
2022-08-26T05:04:44.248Z,66.63
2022-08-26T05:07:12.049Z,71.72
2022-08-26T05:09:42.192Z,71.75
2022-08-26T05:12:09.807Z,73.30
2022-08-26T05:14:37.258Z,70.05
2022-08-26T05:17:04.748Z,70.53
2022-08-26T05:19:32.819Z,69.38
2022-08-26T05:22:00.128Z,78.13
2022-08-26T05:24:27.594Z,72.88
2022-08-26T05:26:54.902Z,63.92
2022-08-26T05:29:24.112Z,70.88
2022-08-26T05:31:52.277Z,63.42
2022-08-26T05:34:20.790Z,62.05
2022-08-26T05:36:48.562Z,69.90
2022-08-26T05:39:15.895Z,67.72
2022-08-26T05:41:44.724Z,68.82
2022-08-26T05:44:15.169Z,71.78
2022-08-26T05:49:14.007Z,67.80
2022-08-26T05:51:45.274Z,68.47
2022-08-26T05:54:12.974Z,65.28
2022-08-26T05:56:40.477Z,67.50
2022-08-26T05:59:14.386Z,70.32
2022-08-26T06:04:09.200Z,73.97
2022-08-26T06:06:37.248Z,73.60
2022-08-26T06:09:06.406Z,66.30
2022-08-26T06:11:36.963Z,79.32
2022-08-26T06:14:06.018Z,79.22
2022-08-26T06:16:34.936Z,84.72
2022-08-26T06:19:03.396Z,71.15
2022-08-26T06:21:39.369Z,77.22
2022-08-26T06:24:27.365Z,73.60
2022-08-26T06:27:01.590Z,72.43
2022-08-26T06:29:29.854Z,75.43
2022-08-26T06:31:58.032Z,95.40
2022-08-26T06:34:29.615Z,78.00
2022-08-26T06:36:58.668Z,90.88
2022-08-26T06:39:26.176Z,71.45
2022-08-26T06:41:53.518Z,82.35
2022-08-26T06:44:22.448Z,80.53
2022-08-26T06:46:50.527Z,77.75
2022-08-26T06:49:27.546Z,82.38
2022-08-26T06:51:58.575Z,80.75
2022-08-26T06:54:26.493Z,72.38
2022-08-26T06:56:53.903Z,75.93
2022-08-26T06:59:22.393Z,78.95
2022-08-26T07:01:50.021Z,79.20
2022-08-26T07:04:22.092Z,76.43
2022-08-26T07:06:52.640Z,70.70
2022-08-26T07:09:21.190Z,71.28
2022-08-26T07:11:48.633Z,77.20
2022-08-26T07:14:21.071Z,78.30
2022-08-26T07:16:49.504Z,79.38
2022-08-26T07:19:17.534Z,67.57
2022-08-26T07:21:56.337Z,77.00
2022-08-26T07:24:23.617Z,72.45
2022-08-26T07:26:58.871Z,71.38
2022-08-26T07:29:26.225Z,54.15
2022-08-26T07:31:54.407Z,47.95
2022-08-26T07:34:24.156Z,48.55
2022-08-26T07:36:51.711Z,64.65
2022-08-26T07:39:19.559Z,55.22
2022-08-26T07:41:47.873Z,56.67
2022-08-26T07:44:16.744Z,51.58
2022-08-26T07:46:44.530Z,59.13
2022-08-26T07:49:20.105Z,48.75
2022-08-26T07:51:47.463Z,80.70
2022-08-26T07:54:14.921Z,46.95
2022-08-26T07:56:44.280Z,63.00
2022-08-26T07:59:13.610Z,53.33
2022-08-26T08:01:41.565Z,56.15
2022-08-26T08:04:13.832Z,59.25
2022-08-26T08:06:41.621Z,51.30
2022-08-26T08:09:11.565Z,49.78
2022-08-26T08:11:38.856Z,48.00
2022-08-26T08:14:08.565Z,52.05
2022-08-26T08:16:41.553Z,52.30
2022-08-26T08:19:13.474Z,51.35
2022-08-26T08:21:41.802Z,54.58
2022-08-26T08:24:09.635Z,57.15
2022-08-26T08:26:37.207Z,48.13
2022-08-26T08:29:05.070Z,50.45
2022-08-26T08:31:54.372Z,53.97
2022-08-26T08:34:21.607Z,47.20
2022-08-26T08:36:49.606Z,55.42
2022-08-26T08:39:17.620Z,61.97
2022-08-26T08:41:54.151Z,84.72
2022-08-26T08:44:30.850Z,51.53
2022-08-26T08:47:04.653Z,46.90
2022-08-26T08:49:33.311Z,51.03
2022-08-26T08:52:00.566Z,43.20
2022-08-26T08:54:29.197Z,45.42
2022-08-26T08:57:05.497Z,45.53
2022-08-26T08:59:34.437Z,42.20
2022-08-26T09:02:05.607Z,54.30
2022-08-26T09:04:52.498Z,56.67
2022-08-26T09:07:23.079Z,52.38
2022-08-26T09:10:06.952Z,47.63
2022-08-26T09:12:35.026Z,53.70
2022-08-26T09:15:07.505Z,58.65
2022-08-26T09:17:37.698Z,53.58
2022-08-26T09:20:14.950Z,45.28
2022-08-26T09:22:44.340Z,43.85
2022-08-26T09:25:13.260Z,44.97
2022-08-26T09:27:51.168Z,35.60
2022-08-26T09:30:27.161Z,32.72
2022-08-26T09:32:59.227Z,41.35
2022-08-26T09:35:30.183Z,37.53
2022-08-26T09:37:58.093Z,42.15
2022-08-26T09:40:34.693Z,39.55
2022-08-26T09:43:16.016Z,41.45
2022-08-26T09:45:58.391Z,40.78
2022-08-26T09:48:26.639Z,36.83
2022-08-26T09:50:55.799Z,29.65
2022-08-26T09:53:28.662Z,35.40
2022-08-26T09:56:15.945Z,27.55
2022-08-26T09:58:44.898Z,23.50
2022-08-26T10:01:18.167Z,24.30
2022-08-26T10:03:47.124Z,31.27
2022-08-26T10:06:21.014Z,28.05
2022-08-26T10:09:03.588Z,33.15
2022-08-26T10:11:38.401Z,20.70
2022-08-26T10:14:25.252Z,20.47
2022-08-26T10:17:02.880Z,22.65
2022-08-26T10:19:57.206Z,24.27
2022-08-26T10:22:36.087Z,22.27
2022-08-26T10:25:06.383Z,23.75
2022-08-26T10:27:53.777Z,23.40
2022-08-26T10:30:25.829Z,15.93
2022-08-26T10:32:56.431Z,17.20
2022-08-26T10:35:23.786Z,16.80
2022-08-26T10:38:01.454Z,20.70
2022-08-26T10:40:31.487Z,24.67
2022-08-26T10:43:18.066Z,19.02
2022-08-26T10:45:55.712Z,13.75
2022-08-26T10:48:35.344Z,15.43
2022-08-26T10:51:04.254Z,16.95
2022-08-26T10:53:39.179Z,15.65
2022-08-26T10:56:30.471Z,13.98
2022-08-26T10:59:00.756Z,27.27
2022-08-26T11:01:43.442Z,18.63
2022-08-26T11:04:13.570Z,13.52
2022-08-26T11:06:41.870Z,11.18
2022-08-26T11:09:10.140Z,15.45
2022-08-26T11:11:37.359Z,8.25
2022-08-26T11:14:06.048Z,10.20
2022-08-26T11:16:44.530Z,9.98
2022-08-26T11:19:56.814Z,15.02
2022-08-26T11:22:26.844Z,10.95
2022-08-26T11:24:54.104Z,16.20
2022-08-26T11:27:24.915Z,16.70
2022-08-26T11:30:00.057Z,15.38
2022-08-26T11:32:46.143Z,12.00
2022-08-26T11:35:21.869Z,14.55
2022-08-26T11:37:51.791Z,15.85
2022-08-26T11:40:25.373Z,12.88
2022-08-26T11:42:54.349Z,11.32
2022-08-26T11:45:30.683Z,14.00
2022-08-26T11:47:58.949Z,13.77
2022-08-26T11:50:27.287Z,15.63
2022-08-26T11:52:56.755Z,13.98
2022-08-26T11:55:24.589Z,17.98
2022-08-26T11:57:54.025Z,15.07
2022-08-26T12:00:31.393Z,12.35
2022-08-26T12:03:02.708Z,15.25
2022-08-26T12:05:31.504Z,19.92
2022-08-26T12:08:02.378Z,14.18
2022-08-26T12:10:34.447Z,17.10
2022-08-26T12:13:02.743Z,9.23
2022-08-26T12:15:32.001Z,11.68
2022-08-26T12:18:16.631Z,10.23
2022-08-26T12:20:48.074Z,12.77
2022-08-26T12:23:27.367Z,16.08
2022-08-26T12:26:03.277Z,14.63
2022-08-26T12:28:31.727Z,12.50
2022-08-26T12:31:00.076Z,15.98
2022-08-26T12:33:28.630Z,9.85
2022-08-26T12:35:57.022Z,9.68
2022-08-26T12:38:25.736Z,9.23
2022-08-26T12:40:53.358Z,14.75
2022-08-26T12:43:39.736Z,8.48
2022-08-26T12:46:08.905Z,12.63
2022-08-26T12:48:38.548Z,15.98
2022-08-26T12:51:16.731Z,13.10
2022-08-26T12:53:44.428Z,13.85
2022-08-26T12:56:30.296Z,11.38
2022-08-26T12:59:12.199Z,12.15
2022-08-26T13:01:45.208Z,19.45
2022-08-26T13:04:46.233Z,14.77
2022-08-26T13:07:31.608Z,14.20
2022-08-26T13:10:00.917Z,19.75
2022-08-26T13:12:29.901Z,13.90
2022-08-26T13:14:58.826Z,17.50
2022-08-26T13:17:26.822Z,8.27
2022-08-26T13:19:54.437Z,17.05
2022-08-26T13:22:24.313Z,15.98
2022-08-26T13:24:56.404Z,12.77
2022-08-26T13:27:26.154Z,13.05
2022-08-26T13:29:53.926Z,13.60
2022-08-26T13:32:27.163Z,13.02
2022-08-26T13:34:55.396Z,12.30
2022-08-26T13:37:29.330Z,14.88
2022-08-26T13:40:05.694Z,11.27
2022-08-26T13:42:33.088Z,12.13
2022-08-26T13:45:01.899Z,9.98
2022-08-26T13:47:29.310Z,17.30
2022-08-26T13:49:56.686Z,17.63
2022-08-26T13:52:30.134Z,10.57
2022-08-26T13:54:59.184Z,8.48
2022-08-26T13:57:28.057Z,9.05
2022-08-26T13:59:57.159Z,6.93
2022-08-26T14:02:24.532Z,11.32
2022-08-26T14:04:53.758Z,10.98
2022-08-26T14:07:21.162Z,4.50
2022-08-26T14:09:48.540Z,5.30
2022-08-26T14:12:16.603Z,6.60
2022-08-26T14:14:43.926Z,5.25
2022-08-26T14:17:11.707Z,9.82
2022-08-26T14:19:39.696Z,6.45
2022-08-26T14:22:06.999Z,4.65
2022-08-26T14:24:34.280Z,6.95
2022-08-26T14:27:01.658Z,7.25
2022-08-26T14:29:29.078Z,9.30
2022-08-26T14:31:58.748Z,6.55
2022-08-26T14:34:26.291Z,9.27
2022-08-26T14:36:53.632Z,7.70
2022-08-26T14:39:21.501Z,4.45
2022-08-26T14:41:54.180Z,5.53
2022-08-26T14:44:22.830Z,7.15
2022-08-26T14:46:52.804Z,8.23
2022-08-26T14:49:21.457Z,9.63
2022-08-26T14:51:48.886Z,11.88
2022-08-26T14:54:17.877Z,15.80
2022-08-26T14:56:50.193Z,9.27
2022-08-26T14:59:27.594Z,7.95
2022-08-26T15:01:55.565Z,9.40
2022-08-26T15:04:23.367Z,19.77
2022-08-26T15:06:51.176Z,11.95
2022-08-26T15:09:18.478Z,11.40
2022-08-26T15:11:47.572Z,15.15
2022-08-26T15:14:19.338Z,11.95
2022-08-26T15:16:48.322Z,11.65
2022-08-26T15:19:16.031Z,11.02
2022-08-26T15:21:45.409Z,10.65
2022-08-26T15:24:12.833Z,16.23
2022-08-26T15:26:40.600Z,12.55
2022-08-26T15:29:07.929Z,14.27
2022-08-26T15:31:35.622Z,11.30
2022-08-26T15:34:08.558Z,13.25
2022-08-26T15:36:38.131Z,15.07
2022-08-26T15:39:07.476Z,12.35
2022-08-26T15:41:35.078Z,13.35
2022-08-26T15:44:03.526Z,18.27
2022-08-26T15:46:32.143Z,19.40
2022-08-26T15:48:59.471Z,10.95
2022-08-26T15:51:28.378Z,15.15
2022-08-26T15:53:56.486Z,8.05
2022-08-26T15:56:27.781Z,9.85
2022-08-26T15:58:56.150Z,14.45
2022-08-26T16:01:27.143Z,13.95
2022-08-26T16:06:24.052Z,19.30
2022-08-26T16:08:51.846Z,12.45
2022-08-26T16:11:19.920Z,16.92
2022-08-26T16:13:47.951Z,11.23
2022-08-26T16:16:15.726Z,15.35
2022-08-26T16:18:43.556Z,7.47
2022-08-26T16:21:16.074Z,11.52
2022-08-26T16:23:45.301Z,29.35
2022-08-26T16:26:15.131Z,7.78
2022-08-26T16:28:43.612Z,9.23
2022-08-26T16:31:11.330Z,6.63
2022-08-26T16:33:38.926Z,6.68
2022-08-26T16:36:06.887Z,11.18
2022-08-26T16:38:34.659Z,10.48
2022-08-26T16:41:02.043Z,8.73
2022-08-26T16:43:29.387Z,8.43
2022-08-26T16:45:56.869Z,9.45
2022-08-26T16:48:24.569Z,8.65
2022-08-26T16:50:54.445Z,10.52
2022-08-26T16:53:22.203Z,10.48
2022-08-26T16:55:50.265Z,6.50
2022-08-26T16:58:17.948Z,14.02
2022-08-26T17:00:45.427Z,12.68
2022-08-26T17:03:13.182Z,8.35
2022-08-26T17:05:40.700Z,7.97
2022-08-26T17:08:08.208Z,9.38
2022-08-26T17:10:36.251Z,7.30
2022-08-26T17:13:03.601Z,9.38
2022-08-26T17:15:30.950Z,7.97
2022-08-26T17:17:58.303Z,7.40
2022-08-26T17:20:25.777Z,12.82
2022-08-26T17:22:54.014Z,9.45
2022-08-26T17:25:24.036Z,14.82
2022-08-26T17:27:51.422Z,10.98
2022-08-26T17:30:19.052Z,5.13
2022-08-26T17:32:46.409Z,6.15
2022-08-26T17:35:14.252Z,8.73
2022-08-26T17:37:41.795Z,11.32
2022-08-26T17:40:10.482Z,5.07
2022-08-26T17:42:38.624Z,7.95
2022-08-26T17:45:06.206Z,11.35
2022-08-26T17:47:34.018Z,9.93
2022-08-26T17:50:04.139Z,8.50
2022-08-26T17:52:31.699Z,7.88
2022-08-26T17:54:59.457Z,8.13
2022-08-26T17:57:27.159Z,5.00
2022-08-26T17:59:54.923Z,7.30
2022-08-26T18:02:23.347Z,6.32
2022-08-26T18:04:50.669Z,10.25
2022-08-26T18:07:18.294Z,7.38
2022-08-26T18:09:45.855Z,12.70
2022-08-26T18:12:13.271Z,6.90
2022-08-26T18:14:40.587Z,8.20
2022-08-26T18:17:07.884Z,5.35
2022-08-26T18:19:35.331Z,7.57
2022-08-26T18:22:02.651Z,5.03
2022-08-26T18:24:32.187Z,4.22
2022-08-26T18:26:59.542Z,10.45
2022-08-26T18:29:27.503Z,10.23
2022-08-26T18:31:54.780Z,14.00
2022-08-26T18:34:22.169Z,13.20
2022-08-26T18:36:52.371Z,7.38
2022-08-26T18:39:19.673Z,8.60
2022-08-26T18:41:55.232Z,12.45
2022-08-26T18:44:23.383Z,9.48
2022-08-26T18:46:51.213Z,6.97
2022-08-26T18:49:19.776Z,4.30
2022-08-26T18:51:47.818Z,8.23
2022-08-26T18:54:15.116Z,7.03
2022-08-26T18:56:43.759Z,6.70
2022-08-26T18:59:11.350Z,2.50
2022-08-26T19:01:40.575Z,6.88
2022-08-26T19:04:08.450Z,4.57
2022-08-26T19:06:42.016Z,6.38
2022-08-26T19:09:10.664Z,5.40
2022-08-26T19:11:42.762Z,10.75
2022-08-26T19:14:13.105Z,7.28
2022-08-26T19:16:41.147Z,4.82
2022-08-26T19:19:08.464Z,1.90
2022-08-26T19:21:36.692Z,4.25
2022-08-26T19:24:06.035Z,5.95
2022-08-26T19:26:33.596Z,4.30
2022-08-26T19:29:01.112Z,5.47
2022-08-26T19:31:28.778Z,9.93
2022-08-26T19:33:58.106Z,3.92
2022-08-26T19:36:26.046Z,5.00
2022-08-26T19:38:53.972Z,2.97
2022-08-26T19:41:26.536Z,8.20
2022-08-26T19:43:58.725Z,6.05
2022-08-26T19:46:26.749Z,30.48
2022-08-26T19:48:55.819Z,62.80
2022-08-26T19:51:24.454Z,9.43
2022-08-26T19:53:52.597Z,8.50
2022-08-26T19:56:19.964Z,6.57
2022-08-26T19:58:47.699Z,10.60
2022-08-26T20:01:15.879Z,4.28
2022-08-26T20:03:43.938Z,6.63
2022-08-26T20:06:12.322Z,6.45
2022-08-26T20:08:41.017Z,3.33
2022-08-26T20:11:10.155Z,6.93
2022-08-26T20:13:37.476Z,4.60
2022-08-26T20:16:05.042Z,5.43
2022-08-26T20:18:50.893Z,4.18
2022-08-26T20:21:27.687Z,6.38
2022-08-26T20:24:00.612Z,9.35
2022-08-26T20:26:29.059Z,8.32
2022-08-26T20:28:56.863Z,7.38
2022-08-26T20:31:24.576Z,3.70
2022-08-26T20:33:52.341Z,4.47
2022-08-26T20:36:20.546Z,9.18
2022-08-26T20:38:48.495Z,3.17
2022-08-26T20:41:15.847Z,5.32
2022-08-26T20:43:43.705Z,5.90
2022-08-26T20:46:17.809Z,8.73
2022-08-26T20:48:46.381Z,9.52
2022-08-26T20:51:13.796Z,6.07
2022-08-26T20:53:41.423Z,4.05
2022-08-26T20:56:09.524Z,8.15
2022-08-26T20:58:37.370Z,2.88
2022-08-26T21:01:07.950Z,7.75
2022-08-26T21:03:36.092Z,14.90
2022-08-26T21:06:03.880Z,4.03
2022-08-26T21:08:33.169Z,4.25
2022-08-26T21:11:00.926Z,3.70
2022-08-26T21:13:39.185Z,7.88
2022-08-26T21:16:15.993Z,5.88
2022-08-26T21:18:43.417Z,5.18
2022-08-26T21:21:10.771Z,8.90
2022-08-26T21:23:38.495Z,5.88
2022-08-26T21:26:13.347Z,10.27
2022-08-26T21:28:41.969Z,25.92
2022-08-26T21:31:10.784Z,7.72
2022-08-26T21:33:38.371Z,8.93
2022-08-26T21:36:06.796Z,5.82
2022-08-26T21:38:36.295Z,6.45
2022-08-26T21:41:32.708Z,9.00
2022-08-26T21:44:00.342Z,9.00
2022-08-26T21:46:29.493Z,7.32
2022-08-26T21:48:58.967Z,6.80
2022-08-26T21:51:27.434Z,5.10
2022-08-26T21:53:55.466Z,5.22
2022-08-26T21:56:23.987Z,8.20
2022-08-26T21:58:52.402Z,12.23
2022-08-26T22:01:21.686Z,5.85
2022-08-26T22:03:49.790Z,5.38
2022-08-26T22:06:17.932Z,4.85
2022-08-26T22:08:45.278Z,5.70
2022-08-26T22:11:13.302Z,18.83
2022-08-26T22:13:41.697Z,8.93
2022-08-26T22:16:09.628Z,3.72
2022-08-26T22:18:37.211Z,6.50
2022-08-26T22:21:06.482Z,5.97
2022-08-26T22:23:33.990Z,5.93
2022-08-26T22:26:01.326Z,5.88
2022-08-26T22:28:28.667Z,4.60
2022-08-26T22:30:56.224Z,4.60
2022-08-26T22:33:23.632Z,10.32
2022-08-26T22:35:51.888Z,4.93
2022-08-26T22:38:19.960Z,6.30
2022-08-26T22:40:49.586Z,5.55
2022-08-26T22:43:18.027Z,2.55
2022-08-26T22:45:47.939Z,3.70
2022-08-26T22:48:17.379Z,5.72
2022-08-26T22:50:45.890Z,3.33
2022-08-26T22:53:13.425Z,4.20
2022-08-26T22:55:40.906Z,4.50
2022-08-26T22:58:08.464Z,4.95
2022-08-26T23:00:36.528Z,5.03
2022-08-26T23:03:04.965Z,3.80
2022-08-26T23:05:32.538Z,2.25
2022-08-26T23:07:59.929Z,2.28
2022-08-26T23:10:27.288Z,58.15
2022-08-26T23:12:54.763Z,5.70
2022-08-26T23:15:22.454Z,3.47
2022-08-26T23:17:53.595Z,2.65
2022-08-26T23:20:26.802Z,7.00
2022-08-26T23:22:54.300Z,3.20
2022-08-26T23:25:21.750Z,5.93
2022-08-26T23:27:49.166Z,3.88
2022-08-26T23:30:19.009Z,2.55
2022-08-26T23:32:46.399Z,42.53
2022-08-26T23:35:14.519Z,5.93
2022-08-26T23:37:44.152Z,4.95
2022-08-26T23:42:40.774Z,7.28
2022-08-26T23:45:09.040Z,3.80
2022-08-26T23:47:36.867Z,4.03
2022-08-26T23:50:04.686Z,7.45
2022-08-26T23:52:50.563Z,3.83
2022-08-26T23:55:18.009Z,12.48
2022-08-26T23:57:45.390Z,6.93
